Adam Morgan

Olheiro - Reading
1 Out 2028
Domingo
Processo

Personalidade

Adaptabilidade (15) Ambição (19) Controvérsia (13) Lealdade (10) Pressão (8) Profissionalismo (9) Espírito Esportivo (1) Temperamento (3)

Perfil

Estilo de Treinamento Democrático
Licença Nacional B
Determinação 12
Gestão de Pessoas 7
Motivação 4
Disciplina 4
Satisfação no Trabalho
100%
Fadiga
0%
Função Olheiro
Salário 46.1K p/s
Contrato 14.03.2030

Desempenho

Comportamento Bom
Eficácia do Treinamento
35%
Desenvolvimento do Jogador
45%
Prevenção de Lesões
20%
Implementação Tática
35%

Eventos Recentes

Participou de uma reunião de recrutamento 14d atrás
Participou de uma reunião de recrutamento 21d atrás
Participou de uma reunião de recrutamento 28d atrás
Aniversário 35d atrás
Participou de uma reunião de recrutamento 35d atrás
Apresentou um dossiê à direção 35d atrás
Recomendou um alvo de transferência 42d atrás
Apresentou um dossiê à direção 42d atrás

Monitorando agora

101
Jogador Clube Status Habilidade Confiança Observado Última observação Último voto
Ossama Ashley Salford City Perdido 114 / 104 76% 1 14.08.2028 Aprovar
Miguel Figueiredo Benfica Ativo 126 / 128 40% 5 12.06.2028 -
Jan Bürger Northampton Town Ativo 127 / 121 40% 4 12.06.2028 -
Jake Evans Crewe Alexandra Ativo 110 / 126 40% 1 07.06.2028 -
Ryan Kavuma-McQueen Accrington Stanley Ativo 114 / 134 40% 1 07.06.2028 -
Leo Pecover Swindon Town Ativo 92 / 107 40% 1 07.06.2028 -
Abubakar Adams Aduana Stars Ativo 79 / 84 40% 3 31.05.2028 -
Daniel Banjaqui Benfica Ativo 125 / 126 40% 5 30.05.2028 -
Simone Suppa Virtus Verona Ativo 83 / 90 40% 3 30.05.2028 -
Jorthy Mokio ADO Den Haag Ativo 136 / 134 40% 1 30.05.2028 -
Giovanni Leoni Lincoln City Ativo 146 / 145 40% 2 29.05.2028 -
Bernardo Lima Porto Ativo 115 / 120 40% 1 29.05.2028 -
Martim Cunha Porto Ativo 107 / 111 40% 3 28.05.2028 -
Riquelme Thompson-Jones Accrington Stanley Ativo 115 / 119 40% 3 28.05.2028 -
Christos Mouzakitis Hull City Ativo 139 / 144 40% 4 27.05.2028 -
Gideon Manaseh Ikorodu City Ativo 87 / 96 40% 3 27.05.2028 -
Tyler Fletcher Rotherham United Ativo 117 / 121 40% 1 27.05.2028 -
Andrea Cogoni Cosenza Ativo 113 / 112 40% 2 26.05.2028 -
Josh Nichols Oldham Athletic Ativo 124 / 124 40% 4 25.05.2028 -
Eko Solomon Leixões Ativo 83 / 92 40% 3 21.05.2028 -
Joel Ezra Enyimba Ativo 104 / 109 40% 3 18.05.2028 -
Andrey Ivlev Nizhniy Novgorod Ativo 116 / 120 40% 3 18.05.2028 -
Amine Boukamir Charleroi Ativo 100 / 109 40% 2 17.05.2028 -
Tobías Ramírez River Plate Ativo 127 / 134 40% 1 15.05.2028 -
Kiani Inge Groningen Ativo 111 / 117 40% 3 13.05.2028 -
Nicolò Moranduzzo Renate Ativo 89 / 99 40% 3 12.05.2028 -
Musa Danjuma Umraniyespor Ativo 94 / 98 40% 2 01.05.2028 -
Celías Ingenthron Platense Ativo 117 / 124 40% 1 01.05.2028 -
Artem Nosachev Spartak Moscow Ativo 70 / 82 40% 2 30.04.2028 -
Ronan Kpakio AC Milan Ativo 120 / 130 40% 2 27.04.2028 -
Olivier Leroux Mouscron Ativo 104 / 113 40% 3 23.04.2028 -
Bence Szakos Aris Ativo 87 / 93 40% 1 22.04.2028 -
Hosea Michael Remo Stars Ativo 89 / 97 40% 2 19.04.2028 -
Nicolas Sport Recife Ativo 109 / 118 40% 1 06.04.2028 -
Claudio Martey Pianese Ativo 93 / 94 40% 1 05.04.2028 -
Lebogang Manyama SuperSport United Ativo 121 / 103 40% 2 29.05.2027 -
Charlie Webster Burton Albion Ativo 113 / 112 40% 1 29.05.2027 -
Federico Zuccon Foggia Ativo 120 / 120 40% 1 29.05.2027 -
Idris El Mizouni Leyton Orient Ativo 121 / 123 40% 1 27.05.2027 -
Max Bird Birmingham Ativo 130 / 131 40% 4 26.05.2027 -
Joel Bagan Cardiff City Ativo 115 / 106 40% 1 26.05.2027 -
Darlin Yongwa Norwich City Ativo 128 / 132 40% 1 26.05.2027 -
Aidan Morris Middlesbrough Ativo 132 / 127 40% 2 25.05.2027 -
Archie Collins Peterborough United Ativo 121 / 116 40% 1 25.05.2027 -
Oliver Skipp Leicester City Ativo 139 / 135 40% 1 25.05.2027 -
Ethan Pye Stockport County Ativo 124 / 111 40% 2 24.05.2027 -
Jay Matete Milton Keynes Dons Ativo 112 / 120 40% 1 24.05.2027 -
Lucas Da Cunha Como Ativo 148 / 141 40% 2 23.05.2027 -
Lewis Bate Stockport County Ativo 122 / 124 40% 2 22.05.2027 -
Gonçalo Franco Swansea City Ativo 122 / 119 40% 1 22.05.2027 -
Harvey Vale Queens Park Rangers Ativo 121 / 119 40% 1 22.05.2027 -
Xavier Simons Bolton Wanderers Ativo 126 / 120 40% 2 21.05.2027 -
Alfie Gilchrist West Bromwich Albion Ativo 127 / 122 40% 1 21.05.2027 -
Max Johnston Derby County Ativo 122 / 123 40% 2 16.05.2027 -
Brian De Keersmaecker Oxford United Ativo 126 / 122 40% 2 15.05.2027 -
Ahmed Zaki Masr El Makasa Ativo 75 / 91 40% 1 15.05.2027 -
Adam Randell Bristol City Ativo 127 / 135 40% 1 13.05.2027 -
Jacques Ekomié Wrexham Ativo 127 / 124 40% 2 12.05.2027 -
Christoph Klarer Birmingham Ativo 131 / 126 40% 1 12.05.2027 -
Mpho Khethang FC Diarra Ativo 82 / 93 40% 1 11.05.2027 -
Kazunari Kita Real Sociedad Ativo 103 / 103 40% 1 11.05.2027 -
Bosun Lawal Stoke City Ativo 124 / 135 40% 2 07.05.2027 -
Welington Southampton Ativo 132 / 127 40% 1 07.05.2027 -
Harrison Burrows Sheffield United Ativo 128 / 127 40% 1 07.05.2027 -
Afriyie Sulemana WAFA Ativo 82 / 89 40% 2 06.05.2027 -
Jack Currie Oxford United Ativo 127 / 130 40% 2 06.05.2027 -
Kamaldeen Atiemo Wa All Stars Ativo 105 / 107 40% 2 06.05.2027 -
Rivaldo Mkhize Black Aces Ativo 81 / 85 40% 1 06.05.2027 -
Brooke Norton-Cuffy Hull City Ativo 143 / 141 40% 4 03.05.2027 -
Shea Charles Southampton Ativo 135 / 142 40% 2 03.05.2027 -
Leighton Clarkson Blackpool Ativo 123 / 126 40% 1 03.05.2027 -
Ezra Mayers West Ham United Ativo 122 / 122 40% 2 02.05.2027 -
Samuele di Benedetto Twente Ativo 109 / 123 40% 1 02.05.2027 -
Teboho Mokoena Black Aces Ativo 89 / 88 40% 1 02.05.2027 -
Gonçalo Oliveira Benfica Ativo 105 / 115 40% 2 28.04.2027 -
Tommaso Cecotti Carpi Ativo 89 / 95 40% 1 27.04.2027 -
Mustapha Jawad Kano Pillars Ativo 96 / 95 40% 1 26.04.2027 -
Dennis Cirkin Queens Park Rangers Ativo 126 / 135 40% 2 24.04.2027 -
Moussa Baradji Blackburn Rovers Ativo 123 / 123 40% 4 23.04.2027 -
Enrico Delprato Parma Ativo 143 / 131 40% 1 23.04.2027 -
Lee Buchanan Sheffield Wednesday Ativo 125 / 118 40% 1 23.04.2027 -
Tiago Freitas Benfica Ativo 110 / 117 40% 3 22.04.2027 -
Adilson Malanda Middlesbrough Ativo 133 / 121 40% 1 20.04.2027 -
Jacob Greaves Ipswich Town Ativo 137 / 137 40% 1 20.04.2027 -
Habib Diarra Sunderland Ativo 136 / 145 40% 2 19.04.2027 -
Alfie Doughty Millwall Ativo 129 / 122 40% 2 18.04.2027 -
Chibueze Oputa Rangers International Ativo 80 / 97 40% 1 16.04.2027 -
Nicolas Madsen Queens Park Rangers Ativo 125 / 122 40% 3 15.04.2027 -
Olalekan Adeleke Remo Stars Ativo 88 / 86 40% 1 12.04.2027 -
Jonathan Varane Queens Park Rangers Ativo 124 / 120 40% 1 04.04.2027 -
David Ozoh Derby County Ativo 117 / 131 40% 1 04.04.2027 -
Alessandro Zoboletti Sambenedettese Ativo 88 / 100 40% 1 03.04.2027 -
Jayden Bogle Leeds United Ativo 144 / 142 40% 1 28.03.2027 -
Caspar Jander Southampton Ativo 130 / 131 40% 2 26.03.2027 -
Godwin Oham Warri Wolves Ativo 88 / 85 40% 1 25.03.2027 -
Pelle Mattsson Norwich City Ativo 118 / 126 40% 1 24.03.2027 -
Terry Devlin Portsmouth Ativo 121 / 113 40% 1 24.03.2027 -
Japhet Tanganga Sheffield United Ativo 127 / 138 40% 3 23.03.2027 -
Florentino Luís Ipswich Town Ativo 137 / 132 40% 1 23.03.2027 -
Cemran Dansin Orlando Pirates Ativo 102 / 121 40% 1 19.03.2027 -
Cheick Doucouré Crystal Palace Ativo 137 / 144 40% 1 17.03.2027 -